My webcam more information My webcam


Thunder radar more information blitzortung!


Rain radar more information rain snow radar


Visit our other weather sites:

Template documentation
and downloads

And another site


You find our weather info also at:

Weather Underground

AWEKAS

Citizen Weather Observer Program (CWOP)

HAMweather, WeatherForYou, PWS Weather


Nearby METAR Reports

   
KTAN - Taunton, Massachusetts, USA
Distance from station: W 5 mi
Updated: Jun 21 2018 11:52 am
Partly Cloudy  
Partly Cloudy  
   Wind: varies 4.6 mph
Wind: varies 4.6 mph
Temperature: 80.6°F
Heat Index: 80.6°F
Dew Point: 60.8°F
Humidity: 51%
Barometer: 29.77 inHg
Clouds: Partly Cloudy
Visibility: 10 mi
Cloud details: Partly Cloudy 4000 ft
KTAN 211552Z AUTO VRB04KT 10SM SCT040 27/16 A2977 RMK AO2 SLP078 T02670156
KPYM - Plymouth, Massachusetts, USA
Distance from station: ENE 10 mi
Updated: Jun 21 2018 11:52 am
Few Clouds  
Few Clouds  
   Wind: Calm
Wind: Calm
Temperature: 78.8°F
Dew Point: 60.8°F
Humidity: 54%
Barometer: 29.78 inHg
Clouds: Few Clouds
Visibility: 10 mi
Cloud details: Few Clouds 4700 ft
KPYM 211552Z AUTO 00000KT 10SM FEW047 26/16 A2978 RMK AO2 SLP082 T02560156
KEWB - New Bedford, Massachusetts, USA
Distance from station: S 14 mi
Updated: Jun 21 2018 10:53 am
Clear  
Clear  
   Wind: SSE 4.6 mph
Wind: SSE 4.6 mph
Temperature: 73.4°F
Dew Point: 64.4°F
Humidity: 74%
Barometer: 29.78 inHg
Clouds: Clear
Visibility: 10 mi
Cloud details: Clear
KEWB 211453Z 16004KT 10SM CLR 23/18 A2978 RMK AO2 SLP084 T02280183 51002
KFMH - Falmouth/Otis Ab, Massachusetts, USA
Distance from station: SE 27 mi
Updated: Jun 21 2018 11:55 am
Clear  
Clear  
   Wind: varies 6.9 mph
Wind: varies 6.9 mph
Temperature: 75.2°F
Dew Point: 64.4°F
Humidity: 69%
Barometer: 29.79 inHg
Clouds: Clear
Visibility: 10 mi
Cloud details: Clear
KFMH 211555Z AUTO VRB06KT 10SM CLR 24/18 A2979 RMK AO2
KBOS - Boston, Massachusetts, USA
Distance from station: N 33 mi
Updated: Jun 21 2018 11:54 am
Few Clouds  
Few Clouds  
   Wind: ESE 12.7 mph
Wind: ESE 12.7 mph
Temperature: 78.8°F
Dew Point: 55.4°F
Humidity: 45%
Barometer: 29.77 inHg
Clouds: Few Clouds
Visibility: 10 mi
Cloud details: Few Clouds 4000 ft,
Few Clouds 20000 ft
KBOS 211554Z 11011KT 10SM FEW040 FEW200 26/13 A2977 RMK AO2 SLP082 T02610133
KHYA - Hyannis, Massachusetts, USA
Distance from station: ESE 37 mi
Updated: Jun 21 2018 10:56 am
Few Clouds  
Few Clouds  
   Wind: SW 9.2 mph
Wind: SW 9.2 mph
Temperature: 69.8°F
Dew Point: 62.6°F
Humidity: 78%
Barometer: 29.78 inHg
Clouds: Few Clouds
Visibility: 10 mi
Cloud details: Few Clouds 10000 ft
KHYA 211456Z 22008KT 10SM FEW100 21/17 A2978 RMK AO2 SLP086 T02110172 52003
KMVY - Marthas Vineyard, Massachusetts, USA
Distance from station: SSE 37 mi
Updated: Jun 21 2018 11:53 am
Partly Cloudy  
Partly Cloudy  
   Wind: SSW 5.8 mph
Wind: SSW 5.8 mph
Temperature: 69.8°F
Dew Point: 64.4°F
Humidity: 83%
Barometer: 29.79 inHg
Clouds: Partly Cloudy
Visibility: 10 mi
Cloud details: Partly Cloudy 9500 ft
KMVY 211553Z 20005KT 10SM SCT095 21/18 A2979 RMK AO2 SLP087 T02060183
KCQX - Chatham, Massachusetts, USA
Distance from station: ESE 49 mi
Updated: Jun 21 2018 11:52 am
Light Rain, Clear  
Light Rain, Clear  
   Wind: varies 5.8 mph
Wind: varies 5.8 mph
Temperature: 75.2°F
Dew Point: 64.4°F
Humidity: 69%
Barometer: 29.79 inHg
Clouds: Clear
Visibility: 10 mi
Cloud details: Clear
KCQX 211552Z AUTO VRB05KT 10SM -RA CLR 24/18 A2979 RMK AO2 RAB12 SLP090 P0000 T02390178 TSNO
 

Script developed by  Saratoga-weather.org Adapted for the template by  Weerstation Leuven

Equipment we use:

Weather-station
Davis Vantage Vue

Weather-program
Meteobridge

Weather-server
TP-LINK TL-MR3020

Provider
Web Hosting By

Davis Vantage Vue

Meteobridge

TP-LINK TL-MR3020

Web Hosting By